createdAt,value
2019-04-01T00:02:23.473Z,1.70
2019-04-01T00:04:51.865Z,2.13
2019-04-01T00:07:20.210Z,2.50
2019-04-01T00:09:48.478Z,2.40
2019-04-01T00:12:16.783Z,1.83
2019-04-01T00:14:45.131Z,2.37
2019-04-01T00:17:13.423Z,1.90
2019-04-01T00:19:41.692Z,1.90
2019-04-01T00:22:09.984Z,2.20
2019-04-01T00:24:38.249Z,1.70
2019-04-01T00:27:06.547Z,2.53
2019-04-01T00:29:34.805Z,2.50
2019-04-01T00:32:03.171Z,1.83
2019-04-01T00:34:31.442Z,1.97
2019-04-01T00:36:59.735Z,1.87
2019-04-01T00:39:28.013Z,2.13
2019-04-01T00:41:56.387Z,1.87
2019-04-01T00:44:24.736Z,1.90
2019-04-01T00:46:52.991Z,2.43
2019-04-01T00:49:21.291Z,1.63
2019-04-01T00:51:49.560Z,1.87
2019-04-01T00:54:17.853Z,2.33
2019-04-01T00:56:46.127Z,3.00
2019-04-01T00:59:14.418Z,2.57
2019-04-01T01:01:42.683Z,1.97
2019-04-01T01:04:10.981Z,2.27
2019-04-01T01:06:39.248Z,2.27
2019-04-01T01:09:07.602Z,2.00
2019-04-01T01:11:35.868Z,2.03
2019-04-01T01:14:04.167Z,3.00
2019-04-01T01:16:32.455Z,2.17
2019-04-01T01:19:00.823Z,2.57
2019-04-01T01:21:30.565Z,2.53
2019-04-01T01:23:58.855Z,2.23
2019-04-01T01:26:27.127Z,1.83
2019-04-01T01:28:55.436Z,1.83
2019-04-01T01:31:23.739Z,2.10
2019-04-01T01:33:52.066Z,1.87
2019-04-01T01:36:20.362Z,2.03
2019-04-01T01:38:48.630Z,2.80
2019-04-01T01:41:16.998Z,2.47
2019-04-01T01:43:45.277Z,1.90
2019-04-01T01:46:13.584Z,2.07
2019-04-01T01:48:41.847Z,2.17
2019-04-01T01:51:10.142Z,1.67
2019-04-01T01:53:41.497Z,1.97
2019-04-01T01:56:08.400Z,1.60
2019-04-01T01:58:36.784Z,2.33
2019-04-01T02:01:05.171Z,2.30
2019-04-01T02:03:33.511Z,2.00
2019-04-01T02:06:01.807Z,1.47
2019-04-01T02:08:30.076Z,1.93
2019-04-01T02:10:58.381Z,1.90
2019-04-01T02:13:26.660Z,2.20
2019-04-01T02:15:54.966Z,1.80
2019-04-01T02:18:23.226Z,1.80
2019-04-01T02:20:51.525Z,2.23
2019-04-01T02:23:19.827Z,1.90
2019-04-01T02:25:48.115Z,1.50
2019-04-01T02:28:16.393Z,2.67
2019-04-01T02:30:44.689Z,1.57
2019-04-01T02:33:12.981Z,2.17
2019-04-01T02:35:41.284Z,1.93
2019-04-01T02:38:09.547Z,2.30
2019-04-01T02:40:37.868Z,2.07
2019-04-01T02:43:06.205Z,2.33
2019-04-01T02:45:34.510Z,2.80
2019-04-01T02:48:02.850Z,2.60
2019-04-01T02:50:31.192Z,3.10
2019-04-01T02:52:59.498Z,2.77
2019-04-01T02:55:27.759Z,1.93
2019-04-01T02:57:56.057Z,2.33
2019-04-01T03:00:24.341Z,2.67
2019-04-01T03:02:52.633Z,2.20
2019-04-01T03:05:20.896Z,2.17
2019-04-01T03:07:49.205Z,3.03
2019-04-01T03:10:17.538Z,3.73
2019-04-01T03:12:45.831Z,2.50
2019-04-01T03:15:14.100Z,1.87
2019-04-01T03:17:42.484Z,2.10
2019-04-01T03:20:10.880Z,1.60
2019-04-01T03:22:39.183Z,2.90
2019-04-01T03:25:07.542Z,1.63
2019-04-01T03:27:35.884Z,1.90
2019-04-01T03:30:04.407Z,2.90
2019-04-01T03:32:32.726Z,2.47
2019-04-01T03:35:01.952Z,2.03
2019-04-01T03:37:30.538Z,1.90
2019-04-01T03:39:58.831Z,1.97
2019-04-01T03:42:27.103Z,1.63
2019-04-01T03:44:55.686Z,1.83
2019-04-01T03:47:24.004Z,2.33
2019-04-01T03:49:52.298Z,1.30
2019-04-01T03:52:20.559Z,2.53
2019-04-01T03:54:48.914Z,1.53
2019-04-01T03:57:17.193Z,2.13
2019-04-01T03:59:45.483Z,1.60
2019-04-01T04:02:13.767Z,1.87
2019-04-01T04:04:42.161Z,2.03
2019-04-01T04:07:10.421Z,2.27
2019-04-01T04:09:38.726Z,2.97
2019-04-01T04:12:06.995Z,1.90
2019-04-01T04:14:35.287Z,2.87
2019-04-01T04:17:03.554Z,2.20
2019-04-01T04:19:31.871Z,2.20
2019-04-01T04:22:00.196Z,3.20
2019-04-01T04:24:28.495Z,2.10
2019-04-01T04:26:56.786Z,2.53
2019-04-01T04:29:25.147Z,2.33
2019-04-01T04:31:53.416Z,2.73
2019-04-01T04:34:21.738Z,2.77
2019-04-01T04:36:50.078Z,2.70
2019-04-01T04:39:18.345Z,3.00
2019-04-01T04:41:46.643Z,2.00
2019-04-01T04:44:14.995Z,2.60
2019-04-01T04:46:43.285Z,2.53
2019-04-01T04:49:11.624Z,2.93
2019-04-01T04:51:39.922Z,2.50
2019-04-01T04:54:08.207Z,2.63
2019-04-01T04:56:36.555Z,2.47
2019-04-01T04:59:04.830Z,2.83
2019-04-01T05:01:33.202Z,2.63
2019-04-01T05:04:01.550Z,2.97
2019-04-01T05:06:29.864Z,2.97
2019-04-01T05:08:58.196Z,2.70
2019-04-01T05:11:26.510Z,2.13
2019-04-01T05:13:55.499Z,2.83
2019-04-01T05:16:23.865Z,2.20
2019-04-01T05:18:52.209Z,3.20
2019-04-01T05:21:21.044Z,3.13
2019-04-01T05:23:50.184Z,2.33
2019-04-01T05:26:20.019Z,2.20
2019-04-01T05:28:48.851Z,2.37
2019-04-01T05:31:18.509Z,2.30
2019-04-01T05:33:55.377Z,2.27
2019-04-01T05:36:18.703Z,2.20
2019-04-01T05:38:47.045Z,1.90
2019-04-01T05:41:15.376Z,2.90
2019-04-01T05:43:43.769Z,2.10
2019-04-01T05:46:12.162Z,2.73
2019-04-01T05:48:40.487Z,2.83
2019-04-01T05:51:08.763Z,3.43
2019-04-01T05:53:37.139Z,2.47
2019-04-01T05:56:06.271Z,3.33
2019-04-01T05:58:34.833Z,2.37
2019-04-01T06:01:03.184Z,2.60
2019-04-01T06:03:31.544Z,2.97
2019-04-01T06:05:59.917Z,2.80
2019-04-01T06:08:28.213Z,2.57
2019-04-01T06:10:56.550Z,3.27
2019-04-01T06:13:24.854Z,2.73
2019-04-01T06:15:53.404Z,3.23
2019-04-01T06:18:21.899Z,3.07
2019-04-01T06:20:50.318Z,2.50
2019-04-01T06:23:18.606Z,2.80
2019-04-01T06:25:46.975Z,2.07
2019-04-01T06:28:15.331Z,4.00
2019-04-01T06:30:43.718Z,2.87
2019-04-01T06:33:12.058Z,1.87
2019-04-01T06:35:40.426Z,2.60
2019-04-01T06:38:08.798Z,3.23
2019-04-01T06:40:37.169Z,3.07
2019-04-01T06:43:05.579Z,2.67
2019-04-01T06:45:33.874Z,2.23
2019-04-01T06:48:02.142Z,2.37
2019-04-01T06:50:30.439Z,2.20
2019-04-01T06:52:58.724Z,2.53
2019-04-01T06:55:27.007Z,2.53
2019-04-01T06:57:55.343Z,2.47
2019-04-01T07:00:23.639Z,2.83
2019-04-01T07:02:51.919Z,2.73
2019-04-01T07:05:20.290Z,2.70
2019-04-01T07:07:48.568Z,3.20
2019-04-01T07:10:16.942Z,3.30
2019-04-01T07:12:45.288Z,2.97
2019-04-01T07:15:13.646Z,3.20
2019-04-01T07:17:41.995Z,2.70
2019-04-01T07:20:10.463Z,3.07
2019-04-01T07:22:38.723Z,2.63
2019-04-01T07:25:07.079Z,2.93
2019-04-01T07:27:35.447Z,3.00
2019-04-01T07:30:05.248Z,3.23
2019-04-01T07:32:33.543Z,2.97
2019-04-01T07:35:01.993Z,3.37
2019-04-01T07:37:30.381Z,3.60
2019-04-01T07:39:58.725Z,3.27
2019-04-01T07:42:27.092Z,3.17
2019-04-01T07:44:55.443Z,3.33
2019-04-01T07:47:23.807Z,3.37
2019-04-01T07:49:52.152Z,3.90
2019-04-01T07:52:20.543Z,3.60
2019-04-01T07:54:48.882Z,2.87
2019-04-01T07:57:17.339Z,3.53
2019-04-01T07:59:45.756Z,3.30
2019-04-01T08:02:14.206Z,3.57
2019-04-01T08:04:43.255Z,2.90
2019-04-01T08:07:13.392Z,3.33
2019-04-01T08:09:41.634Z,3.57
2019-04-01T08:12:10.010Z,3.47
2019-04-01T08:14:38.359Z,3.17
2019-04-01T08:17:06.723Z,3.40
2019-04-01T08:19:35.063Z,3.87
2019-04-01T08:22:03.548Z,3.53
2019-04-01T08:24:31.882Z,4.10
2019-04-01T08:27:00.247Z,4.00
2019-04-01T08:29:30.590Z,3.20
2019-04-01T08:31:58.669Z,3.77
2019-04-01T08:34:27.211Z,3.73
2019-04-01T08:36:55.559Z,3.67
2019-04-01T08:39:23.861Z,3.43
2019-04-01T08:41:52.126Z,4.03
2019-04-01T08:44:20.492Z,4.47
2019-04-01T08:46:48.770Z,4.10
2019-04-01T08:49:17.074Z,4.23
2019-04-01T08:51:45.337Z,3.97
2019-04-01T08:54:13.747Z,4.03
2019-04-01T08:56:42.131Z,4.20
2019-04-01T08:59:10.733Z,4.40
2019-04-01T09:01:39.420Z,4.97
2019-04-01T09:04:08.156Z,4.43
2019-04-01T09:06:36.856Z,4.10
2019-04-01T09:09:06.527Z,4.20
2019-04-01T09:11:38.458Z,4.70
2019-04-01T09:14:05.945Z,4.40
2019-04-01T09:16:34.783Z,5.33
2019-04-01T09:19:03.596Z,4.73
2019-04-01T09:21:32.304Z,4.67
2019-04-01T09:24:01.098Z,4.80
2019-04-01T09:26:29.800Z,5.13
2019-04-01T09:28:58.627Z,5.60
2019-04-01T09:31:27.506Z,4.43
2019-04-01T09:33:56.250Z,5.27
2019-04-01T09:36:25.081Z,5.57
2019-04-01T09:38:53.817Z,4.53
2019-04-01T09:41:22.610Z,5.10
2019-04-01T09:43:51.325Z,5.47
2019-04-01T09:46:20.053Z,5.13
2019-04-01T09:48:48.755Z,5.50
2019-04-01T09:51:17.490Z,6.10
2019-04-01T09:53:46.196Z,6.13
2019-04-01T09:56:14.948Z,5.60
2019-04-01T09:58:43.723Z,5.90
2019-04-01T10:01:12.596Z,6.77
2019-04-01T10:03:41.374Z,6.53
2019-04-01T10:06:10.490Z,5.47
2019-04-01T10:08:42.631Z,6.07
2019-04-01T10:11:12.660Z,6.33
2019-04-01T10:13:40.308Z,6.33
2019-04-01T10:16:09.137Z,6.47
2019-04-01T10:18:38.022Z,5.87
2019-04-01T10:21:06.766Z,4.83
2019-04-01T10:23:35.474Z,7.30
2019-04-01T10:26:04.306Z,7.47
2019-04-01T10:28:33.012Z,6.07
2019-04-01T10:31:01.821Z,6.10
2019-04-01T10:33:30.596Z,6.73
2019-04-01T10:35:59.454Z,6.90
2019-04-01T10:38:28.252Z,6.63
2019-04-01T10:40:57.090Z,6.93
2019-04-01T10:43:25.828Z,6.47
2019-04-01T10:45:54.629Z,7.43
2019-04-01T10:48:23.353Z,6.90
2019-04-01T10:50:52.138Z,7.37
2019-04-01T10:53:20.904Z,6.23
2019-04-01T10:55:49.748Z,6.87
2019-04-01T10:58:18.565Z,7.00
2019-04-01T11:00:47.407Z,7.23
2019-04-01T11:03:16.158Z,7.17
2019-04-01T11:05:45.837Z,7.50
2019-04-01T11:08:14.772Z,6.87
2019-04-01T11:10:43.481Z,7.80
2019-04-01T11:13:12.285Z,5.97
2019-04-01T11:15:41.129Z,7.40
2019-04-01T11:18:09.936Z,8.53
2019-04-01T11:20:38.716Z,8.10
2019-04-01T11:23:07.523Z,8.57
2019-04-01T11:25:36.223Z,7.77
2019-04-01T11:28:05.208Z,7.87
2019-04-01T11:30:36.912Z,7.23
2019-04-01T11:33:07.565Z,7.17
2019-04-01T11:35:34.996Z,8.40
2019-04-01T11:38:03.914Z,8.00
2019-04-01T11:40:32.713Z,8.67
2019-04-01T11:43:04.818Z,6.00
2019-04-01T11:45:31.982Z,8.67
2019-04-01T11:48:00.772Z,8.23
2019-04-01T11:50:29.540Z,7.97
2019-04-01T11:52:58.419Z,7.43
2019-04-01T11:55:27.297Z,8.23
2019-04-01T11:57:56.059Z,8.17
2019-04-01T12:00:26.351Z,8.13
2019-04-01T12:02:55.315Z,9.33
2019-04-01T12:05:24.071Z,7.60
2019-04-01T12:07:52.851Z,7.87
2019-04-01T12:10:21.722Z,7.57
2019-04-01T12:12:50.602Z,8.60
2019-04-01T12:15:19.903Z,8.40
2019-04-01T12:17:48.614Z,7.30
2019-04-01T12:20:17.419Z,7.90
2019-04-01T12:22:46.312Z,8.27
2019-04-01T12:25:15.140Z,8.33
2019-04-01T12:27:45.152Z,7.53
2019-04-01T12:30:14.165Z,7.77
2019-04-01T12:32:42.862Z,9.03
2019-04-01T12:35:11.929Z,8.63
2019-04-01T12:37:40.711Z,9.00
2019-04-01T12:40:09.648Z,9.00
2019-04-01T12:42:38.522Z,7.53
2019-04-01T12:45:07.533Z,8.50
2019-04-01T12:47:36.375Z,8.30
2019-04-01T12:50:06.636Z,7.87
2019-04-01T12:52:35.366Z,9.30
2019-04-01T12:55:06.236Z,8.90
2019-04-01T12:57:35.043Z,8.50
2019-04-01T13:00:05.890Z,8.10
2019-04-01T13:02:34.648Z,8.20
2019-04-01T13:05:05.002Z,8.63
2019-04-01T13:07:33.818Z,8.73
2019-04-01T13:10:03.666Z,8.47
2019-04-01T13:12:32.395Z,8.67
2019-04-01T13:15:01.114Z,8.63
2019-04-01T13:17:29.853Z,9.13
2019-04-01T13:19:58.648Z,8.47
2019-04-01T13:22:27.442Z,8.40
2019-04-01T13:24:56.217Z,8.73
2019-04-01T13:27:24.961Z,8.30
2019-04-01T13:29:53.739Z,10.23
2019-04-01T13:32:22.476Z,8.80
2019-04-01T13:34:51.275Z,8.83
2019-04-01T13:37:20.014Z,8.80
2019-04-01T13:39:48.789Z,9.13
2019-04-01T13:42:17.665Z,9.80
2019-04-01T13:44:46.377Z,8.83
2019-04-01T13:47:15.099Z,8.50
2019-04-01T13:49:43.822Z,9.27
2019-04-01T13:52:12.569Z,8.40
2019-04-01T13:54:41.701Z,8.63
2019-04-01T13:57:10.235Z,8.60
2019-04-01T13:59:49.139Z,8.97
2019-04-01T14:02:08.798Z,8.80
2019-04-01T14:04:37.125Z,9.33
2019-04-01T14:07:05.473Z,9.87
2019-04-01T14:09:33.768Z,10.20
2019-04-01T14:12:02.112Z,9.00
2019-04-01T14:14:30.410Z,9.37
2019-04-01T14:16:58.684Z,10.30
2019-04-01T14:19:26.986Z,9.27
2019-04-01T14:21:55.335Z,8.80
2019-04-01T14:24:23.638Z,8.93
2019-04-01T14:26:51.915Z,9.40
2019-04-01T14:29:20.224Z,8.80
2019-04-01T14:31:48.503Z,9.60
2019-04-01T14:34:22.981Z,8.73
2019-04-01T14:36:46.812Z,9.53
2019-04-01T14:39:15.110Z,8.53
2019-04-01T14:41:43.397Z,9.87
2019-04-01T14:44:11.735Z,9.20
2019-04-01T14:46:40.044Z,8.90
2019-04-01T14:49:08.310Z,9.27
2019-04-01T14:51:36.609Z,8.87
2019-04-01T14:54:06.101Z,9.50
2019-04-01T14:56:34.658Z,8.77
2019-04-01T14:59:03.005Z,9.90
2019-04-01T15:01:31.310Z,8.43
2019-04-01T15:03:59.648Z,8.57
2019-04-01T15:06:27.986Z,8.63
2019-04-01T15:08:56.880Z,9.43
2019-04-01T15:11:25.319Z,9.00
2019-04-01T15:13:53.600Z,8.90
2019-04-01T15:16:21.910Z,9.13
2019-04-01T15:18:50.171Z,9.40
2019-04-01T15:21:19.307Z,8.63
2019-04-01T15:23:47.592Z,8.60
2019-04-01T15:26:15.944Z,9.00
2019-04-01T15:28:44.297Z,8.57
2019-04-01T15:31:12.587Z,9.67
2019-04-01T15:33:40.979Z,8.57
2019-04-01T15:36:09.291Z,8.63
2019-04-01T15:38:37.586Z,8.20
2019-04-01T15:41:05.861Z,8.87
2019-04-01T15:43:34.154Z,9.00
2019-04-01T15:46:04.171Z,8.87
2019-04-01T15:48:32.506Z,9.70
2019-04-01T15:51:00.826Z,8.60
2019-04-01T15:53:29.122Z,8.77
2019-04-01T15:55:57.403Z,8.40
2019-04-01T15:58:25.706Z,8.83
2019-04-01T16:00:54.103Z,8.83
2019-04-01T16:03:22.442Z,8.50
2019-04-01T16:05:50.779Z,8.43
2019-04-01T16:08:19.263Z,8.57
2019-04-01T16:10:47.595Z,8.30
2019-04-01T16:13:15.906Z,8.17
2019-04-01T16:15:44.176Z,8.67
2019-04-01T16:18:12.462Z,8.03
2019-04-01T16:20:40.739Z,7.90
2019-04-01T16:23:09.027Z,8.23
2019-04-01T16:25:37.807Z,8.20
2019-04-01T16:28:06.333Z,7.73
2019-04-01T16:30:34.698Z,8.00
2019-04-01T16:33:03.052Z,8.37
2019-04-01T16:35:31.421Z,8.17
2019-04-01T16:37:59.761Z,8.47
2019-04-01T16:40:28.071Z,8.53
2019-04-01T16:42:56.411Z,7.70
2019-04-01T16:45:24.823Z,8.73
2019-04-01T16:47:53.158Z,7.90
2019-04-01T16:50:21.562Z,9.20
2019-04-01T16:52:50.005Z,7.70
2019-04-01T16:55:18.784Z,9.03
2019-04-01T16:57:48.644Z,8.10
2019-04-01T17:00:17.324Z,7.47
2019-04-01T17:02:45.605Z,7.60
2019-04-01T17:05:14.470Z,8.23
2019-04-01T17:07:42.776Z,7.77
2019-04-01T17:10:12.611Z,7.93
2019-04-01T17:12:40.883Z,7.27
2019-04-01T17:15:09.253Z,7.40
2019-04-01T17:17:37.534Z,7.70
2019-04-01T17:20:06.303Z,7.77
2019-04-01T17:22:34.770Z,8.00
2019-04-01T17:25:04.387Z,7.13
2019-04-01T17:27:32.694Z,8.30
2019-04-01T17:30:01.048Z,7.60
2019-04-01T17:32:29.356Z,7.53
2019-04-01T17:34:57.636Z,8.07
2019-04-01T17:37:26.134Z,7.47
2019-04-01T17:39:54.469Z,8.33
2019-04-01T17:42:22.781Z,7.40
2019-04-01T17:44:52.728Z,7.07
2019-04-01T17:47:21.127Z,7.53
2019-04-01T17:49:49.550Z,6.90
2019-04-01T17:52:17.874Z,7.37
2019-04-01T17:54:46.145Z,6.57
2019-04-01T17:57:15.926Z,7.83
2019-04-01T17:59:44.560Z,7.17
2019-04-01T18:02:14.430Z,7.43
2019-04-01T18:04:42.720Z,7.40
2019-04-01T18:07:11.116Z,7.50
2019-04-01T18:09:39.528Z,7.63
2019-04-01T18:12:07.867Z,7.10
2019-04-01T18:14:36.226Z,7.43
2019-04-01T18:17:04.523Z,6.57
2019-04-01T18:19:32.801Z,6.87
2019-04-01T18:22:01.186Z,7.20
2019-04-01T18:24:29.603Z,6.93
2019-04-01T18:26:57.908Z,7.13
2019-04-01T18:29:26.211Z,7.07
2019-04-01T18:31:54.477Z,6.80
2019-04-01T18:34:22.791Z,7.30
2019-04-01T18:36:51.986Z,6.80
2019-04-01T18:39:20.631Z,7.60
2019-04-01T18:41:48.908Z,6.87
2019-04-01T18:44:18.737Z,7.13
2019-04-01T18:46:47.258Z,6.83
2019-04-01T18:49:17.137Z,7.50
2019-04-01T18:51:45.717Z,7.80
2019-04-01T18:54:14.292Z,6.93
2019-04-01T18:56:42.701Z,7.83
2019-04-01T18:59:11.141Z,6.43
2019-04-01T19:01:39.426Z,7.13
2019-04-01T19:04:07.853Z,7.40
2019-04-01T19:06:36.386Z,7.53
2019-04-01T19:09:09.365Z,6.60
2019-04-01T19:11:38.000Z,7.33
2019-04-01T19:14:06.767Z,6.80
2019-04-01T19:16:35.067Z,7.27
2019-04-01T19:19:03.459Z,7.40
2019-04-01T19:21:31.823Z,7.60
2019-04-01T19:24:00.405Z,7.10
2019-04-01T19:26:28.784Z,7.50
2019-04-01T19:28:58.349Z,7.50
2019-04-01T19:31:26.828Z,8.60
2019-04-01T19:33:55.109Z,8.47
2019-04-01T19:36:23.549Z,8.70
2019-04-01T19:38:51.818Z,7.97
2019-04-01T19:41:20.622Z,7.27
2019-04-01T19:43:51.171Z,7.97
2019-04-01T19:46:19.254Z,7.83
2019-04-01T19:48:47.533Z,6.90
2019-04-01T19:51:15.833Z,7.27
2019-04-01T19:53:44.182Z,6.67
2019-04-01T19:56:12.571Z,6.50
2019-04-01T19:58:40.837Z,7.63
2019-04-01T20:01:09.267Z,7.80
2019-04-01T20:03:37.694Z,6.90
2019-04-01T20:06:07.586Z,7.63
2019-04-01T20:08:36.088Z,6.40
2019-04-01T20:11:04.411Z,7.10
2019-04-01T20:13:32.757Z,6.70
2019-04-01T20:16:01.076Z,7.53
2019-04-01T20:18:29.465Z,7.23
2019-04-01T20:20:57.804Z,7.53
2019-04-01T20:23:26.084Z,7.43
2019-04-01T20:25:54.409Z,7.40
2019-04-01T20:28:22.676Z,7.60
2019-04-01T20:30:50.952Z,7.53
2019-04-01T20:33:20.696Z,7.40
2019-04-01T20:35:49.490Z,7.27
2019-04-01T20:38:17.806Z,6.90
2019-04-01T20:40:46.158Z,6.90
2019-04-01T20:43:15.365Z,6.53
2019-04-01T20:45:44.436Z,6.93
2019-04-01T20:48:13.179Z,7.60
2019-04-01T20:50:42.027Z,8.13
2019-04-01T20:53:10.784Z,8.13
2019-04-01T20:55:48.217Z,7.87
2019-04-01T20:58:10.060Z,7.60
2019-04-01T21:00:38.880Z,7.10
2019-04-01T21:03:07.684Z,7.17
2019-04-01T21:05:36.387Z,8.13
2019-04-01T21:08:05.129Z,7.50
2019-04-01T21:10:33.904Z,7.67
2019-04-01T21:13:02.801Z,7.90
2019-04-01T21:15:31.529Z,7.07
2019-04-01T21:18:00.336Z,7.60
2019-04-01T21:20:29.040Z,7.07
2019-04-01T21:22:57.770Z,7.43
2019-04-01T21:25:26.539Z,6.63
2019-04-01T21:27:55.300Z,7.47
2019-04-01T21:30:24.197Z,7.93
2019-04-01T21:32:52.899Z,8.13
2019-04-01T21:35:23.638Z,8.10
2019-04-01T21:37:52.415Z,8.00
2019-04-01T21:40:21.161Z,8.47
2019-04-01T21:42:50.470Z,7.90
2019-04-01T21:45:20.428Z,8.63
2019-04-01T21:47:49.192Z,7.53
2019-04-01T21:50:18.072Z,8.00
2019-04-01T21:52:46.850Z,7.90
2019-04-01T21:55:15.702Z,8.20
2019-04-01T21:57:44.419Z,8.57
2019-04-01T22:00:14.246Z,8.63
2019-04-01T22:02:44.069Z,9.27
2019-04-01T22:05:13.517Z,11.20
2019-04-01T22:07:42.217Z,9.27
2019-04-01T22:10:11.181Z,10.33
2019-04-01T22:12:39.891Z,10.23
2019-04-01T22:15:08.761Z,9.83
2019-04-01T22:17:37.463Z,10.40
2019-04-01T22:20:06.543Z,10.63
2019-04-01T22:22:36.156Z,10.60
2019-04-01T22:25:05.937Z,10.70
2019-04-01T22:27:34.675Z,11.67
2019-04-01T22:30:06.656Z,11.10
2019-04-01T22:32:35.468Z,12.13
2019-04-01T22:35:05.447Z,10.77
2019-04-01T22:37:34.411Z,11.20
2019-04-01T22:40:05.576Z,11.73
2019-04-01T22:42:34.346Z,12.17
2019-04-01T22:45:04.908Z,11.40
2019-04-01T22:47:33.726Z,11.87
2019-04-01T22:50:03.567Z,12.33
2019-04-01T22:52:32.294Z,12.03
2019-04-01T22:55:01.067Z,11.97
2019-04-01T22:57:29.803Z,11.50
2019-04-01T22:59:58.507Z,12.60
2019-04-01T23:02:27.322Z,11.30
2019-04-01T23:04:56.024Z,11.50
2019-04-01T23:07:24.757Z,12.30
2019-04-01T23:09:53.470Z,12.47
2019-04-01T23:12:22.392Z,12.87
2019-04-01T23:14:51.544Z,12.17
2019-04-01T23:17:20.281Z,12.27
2019-04-01T23:19:49.058Z,11.47
2019-04-01T23:22:17.787Z,11.23
2019-04-01T23:24:46.527Z,12.37
2019-04-01T23:27:15.372Z,12.23
2019-04-01T23:29:44.088Z,11.87
2019-04-01T23:32:12.906Z,11.30
2019-04-01T23:34:42.361Z,11.83
2019-04-01T23:37:11.976Z,12.73
2019-04-01T23:39:40.725Z,11.67
2019-04-01T23:42:09.458Z,11.87
2019-04-01T23:44:38.206Z,13.10
2019-04-01T23:47:06.902Z,12.73
2019-04-01T23:49:35.632Z,11.00
2019-04-01T23:52:05.205Z,12.50
2019-04-01T23:54:34.196Z,10.67
2019-04-01T23:57:02.911Z,11.97
2019-04-01T23:59:31.705Z,12.77
